Time;durP1;ratioP1;P1;durP2;ratioP2;P2;SDS_P1;SDS_P2;PMS_P1;PMS_P2;Temp;Humidity;BMP_temperature;BMP_pressure;BME280_temperature;BME280_humidity;BME280_pressure;Samples;Min_cycle;Max_cycle;Signal;HPM_P1;HPM_P2
2022/04/18 00:00:12;;;;;;;46.37;27.20;;;;;;;7.13;59.89;101485.56;5114141;28;20185;-70
2022/04/18 00:02:39;;;;;;;45.00;27.53;;;;;;;7.11;59.49;101484.75;5114513;28;20242;-70
2022/04/18 00:05:07;;;;;;;41.13;26.97;;;;;;;7.07;60.63;101483.06;5112039;28;20666;-70
2022/04/18 00:07:33;;;;;;;41.03;27.77;;;;;;;7.08;60.73;101477.84;5113881;28;20193;-70
2022/04/18 00:10:00;;;;;;;46.23;28.53;;;;;;;7.07;59.16;101483.94;5113565;28;20187;-70
2022/04/18 00:12:28;;;;;;;46.30;28.77;;;;;;;7.13;58.06;101475.16;5112778;28;20246;-70
2022/04/18 00:14:55;;;;;;;42.77;27.57;;;;;;;7.21;58.15;101475.03;5113286;28;20188;-70
2022/04/18 00:17:21;;;;;;;46.63;28.30;;;;;;;7.13;59.07;101475.16;5113530;28;20327;-70
2022/04/18 00:19:48;;;;;;;46.10;28.83;;;;;;;7.12;58.77;101476.91;5113839;28;20191;-70
2022/04/18 00:22:14;;;;;;;45.93;29.33;;;;;;;7.08;59.52;101472.66;5112498;28;20189;-70
2022/04/18 00:24:41;;;;;;;50.13;30.20;;;;;;;7.12;58.44;101460.41;5113804;28;20192;-70
2022/04/18 00:27:07;;;;;;;51.80;31.07;;;;;;;7.02;57.68;101466.66;5113005;28;20239;-70
2022/04/18 00:29:34;;;;;;;52.57;30.00;;;;;;;6.96;58.68;101464.13;5113497;28;20196;-70
2022/04/18 00:32:00;;;;;;;55.33;31.33;;;;;;;7.06;59.00;101456.16;5113652;28;20253;-70
2022/04/18 00:34:27;;;;;;;44.23;29.97;;;;;;;6.99;60.48;101464.94;5112056;28;20189;-70
2022/04/18 00:36:54;;;;;;;48.20;29.80;;;;;;;6.92;61.47;101458.09;5113379;28;20253;-70
2022/04/18 00:39:21;;;;;;;46.27;29.43;;;;;;;6.75;61.72;101455.75;5112219;28;20206;-70
2022/04/18 00:41:48;;;;;;;48.30;29.87;;;;;;;6.67;62.58;101452.41;5113575;28;20187;-70
2022/04/18 00:44:14;;;;;;;49.03;30.93;;;;;;;6.54;64.47;101448.22;5112179;28;20196;-69
2022/04/18 00:46:41;;;;;;;44.47;29.37;;;;;;;6.43;63.11;101443.19;5113454;28;20269;-70
2022/04/18 00:49:07;;;;;;;48.27;31.30;;;;;;;6.59;62.53;101456.84;5113315;28;20237;-70
2022/04/18 00:51:34;;;;;;;52.43;30.90;;;;;;;6.50;63.70;101454.34;5095043;28;20215;-70
2022/04/18 00:54:01;;;;;;;53.93;32.77;;;;;;;6.50;61.14;101452.63;5112576;28;20199;-70
2022/04/18 00:56:28;;;;;;;58.70;31.67;;;;;;;6.38;61.18;101447.56;5111677;28;20235;-70
2022/04/18 00:58:55;;;;;;;58.00;33.10;;;;;;;6.40;61.35;101450.13;5081445;28;20188;-70
2022/04/18 01:01:23;;;;;;;50.50;32.87;;;;;;;6.49;60.76;101452.63;5092985;28;20180;-70
2022/04/18 01:03:53;;;;;;;59.63;33.23;;;;;;;6.45;61.39;101437.94;5074840;28;20246;-70
2022/04/18 01:06:20;;;;;;;64.40;33.57;;;;;;;6.39;62.40;101445.81;5074797;28;20215;-70
2022/04/18 01:08:48;;;;;;;57.93;32.23;;;;;;;6.31;63.20;101438.97;5076083;28;20198;-70
2022/04/18 01:11:16;;;;;;;51.53;31.73;;;;;;;6.26;63.47;101438.16;5074538;28;20260;-70
2022/04/18 01:14:04;;;;;;;56.63;35.57;;;;;;;6.15;63.49;101432.25;5093223;28;20237;-70
2022/04/18 01:16:53;;;;;;;62.90;34.30;;;;;;;6.17;63.60;101432.22;5071290;28;20219;-70
2022/04/18 01:19:24;;;;;;;61.67;32.77;;;;;;;6.19;63.39;101430.44;5094186;28;20193;-69
2022/04/18 01:21:59;;;;;;;57.83;34.17;;;;;;;6.15;63.71;101432.25;5093475;28;20199;-69
2022/04/18 01:30:11;;;;;;;58.00;34.20;;;;;;;6.15;64.74;101429.66;5111778;28;20651;-69
2022/04/18 01:32:39;;;;;;;65.13;34.90;;;;;;;6.10;64.71;101427.97;5109465;28;20262;-69
2022/04/18 01:35:06;;;;;;;49.20;32.40;;;;;;;6.00;64.94;101427.19;5113268;28;20711;-70
2022/04/18 01:37:36;;;;;;;59.00;32.90;;;;;;;5.96;65.14;101425.53;5094456;28;20201;-70
2022/04/18 01:40:04;;;;;;;60.83;34.50;;;;;;;5.94;64.01;101427.28;5095971;28;20193;-69
2022/04/18 01:42:31;;;;;;;66.43;36.80;;;;;;;5.84;63.90;101421.25;5085056;28;20664;-69
2022/04/18 01:45:00;;;;;;;51.57;32.10;;;;;;;5.71;64.00;101422.25;5077821;28;20602;-69
2022/04/18 01:47:28;;;;;;;60.00;33.77;;;;;;;5.73;63.56;101424.00;5077866;28;20222;-70
2022/04/18 01:49:54;;;;;;;56.97;33.57;;;;;;;5.66;63.56;101419.72;5077795;28;20187;-70
2022/04/18 01:52:20;;;;;;;63.87;35.93;;;;;;;5.69;63.40;101416.22;5081420;28;20205;-69
2022/04/18 01:54:47;;;;;;;58.13;33.67;;;;;;;5.61;64.26;101418.06;5096990;28;20282;-70
2022/04/18 01:57:17;;;;;;;64.43;35.20;;;;;;;5.54;64.92;101412.03;5098020;28;20220;-70
2022/04/18 01:59:44;;;;;;;60.90;33.40;;;;;;;5.49;65.55;101411.22;5098082;28;20189;-70
2022/04/18 02:02:11;;;;;;;64.90;33.60;;;;;;;5.40;65.55;101409.56;5096512;28;20712;-69
2022/04/18 02:04:38;;;;;;;61.97;33.63;;;;;;;5.29;65.89;101414.03;5098053;28;20196;-69
2022/04/18 02:07:10;;;;;;;55.30;30.63;;;;;;;5.30;66.32;101405.34;5116694;28;20663;-69
2022/04/18 02:09:39;;;;;;;70.40;33.73;;;;;;;5.21;67.75;101408.88;5098153;28;20242;-69
2022/04/18 02:12:08;;;;;;;60.10;32.40;;;;;;;5.27;67.63;101407.09;5096713;28;20605;-69
2022/04/18 02:14:49;;;;;;;55.80;31.57;;;;;;;5.22;68.64;101397.63;5097062;28;20194;-69
2022/04/18 02:17:16;;;;;;;62.37;33.07;;;;;;;5.27;70.05;101407.94;5097244;28;20603;-69
2022/04/18 02:19:44;;;;;;;58.50;32.40;;;;;;;5.30;69.30;101407.09;5116380;28;20577;-69
2022/04/18 02:22:12;;;;;;;62.00;32.83;;;;;;;5.20;69.48;101398.50;5093442;28;20224;-69
2022/04/18 02:24:40;;;;;;;50.37;29.47;;;;;;;5.19;69.69;101397.63;5095483;28;20194;-69
2022/04/18 02:27:07;;;;;;;57.07;30.40;;;;;;;5.16;69.89;101400.28;5085431;28;20212;-70
2022/04/18 02:29:33;;;;;;;52.70;31.33;;;;;;;5.17;70.50;101399.38;5115777;28;20559;-70
2022/04/18 02:34:46;;;;;;;55.80;30.97;;;;;;;5.00;71.58;101398.69;5108714;28;20179;-70
2022/04/18 02:37:12;;;;;;;55.03;31.70;;;;;;;4.95;72.42;101395.25;5076885;28;20313;-70
2022/04/18 02:39:39;;;;;;;48.50;29.23;;;;;;;4.94;72.99;101393.53;5091445;28;20198;-70
2022/04/18 02:42:05;;;;;;;49.20;30.33;;;;;;;4.97;73.75;101393.50;5097252;28;20189;-70
2022/04/18 02:44:33;;;;;;;51.57;31.30;;;;;;;4.96;74.28;101381.38;5097877;28;20186;-70
2022/04/18 02:47:00;;;;;;;51.37;30.57;;;;;;;4.92;74.19;101384.88;5094499;28;20258;-70
2022/04/18 02:49:28;;;;;;;57.60;31.90;;;;;;;4.89;74.03;101377.97;5085107;28;20285;-69
2022/04/18 02:51:55;;;;;;;58.50;33.03;;;;;;;4.92;73.76;101377.94;5090950;28;20205;-69
2022/04/18 02:54:22;;;;;;;57.50;31.20;;;;;;;4.88;73.67;101367.63;5097027;28;20190;-69
2022/04/18 02:56:48;;;;;;;54.63;31.77;;;;;;;4.83;73.57;101364.19;5096859;28;20213;-70
2022/04/18 02:59:15;;;;;;;58.77;33.63;;;;;;;4.75;74.34;101360.78;5097438;28;20246;-70
2022/04/18 03:01:42;;;;;;;61.73;35.80;;;;;;;4.68;74.48;101363.41;5095256;28;20738;-70
2022/04/18 03:04:08;;;;;;;62.73;35.13;;;;;;;4.65;74.86;101353.09;5095596;28;20224;-70
2022/04/18 03:06:35;;;;;;;72.77;40.90;;;;;;;4.78;74.42;101355.56;5096287;28;20205;-70
2022/04/18 03:09:02;;;;;;;79.20;40.00;;;;;;;4.70;74.16;101353.03;5114994;28;20177;-70
2022/04/18 03:11:28;;;;;;;71.30;38.17;;;;;;;4.67;73.97;101347.88;5096592;28;20205;-70
2022/04/18 03:13:55;;;;;;;62.50;34.50;;;;;;;4.62;73.82;101355.69;5096596;28;20197;-70
2022/04/18 03:16:36;;;;;;;60.17;32.43;;;;;;;4.68;74.07;101345.25;5095233;28;20213;-69
2022/04/18 03:19:04;;;;;;;60.67;33.90;;;;;;;4.58;74.54;101343.63;5096615;28;20687;-69
2022/04/18 03:21:33;;;;;;;54.77;31.57;;;;;;;4.59;74.54;101349.66;5096982;28;20651;-70
2022/04/18 03:24:07;;;;;;;55.23;31.97;;;;;;;4.56;74.14;101353.13;5095451;28;20228;-69
2022/04/18 03:26:36;;;;;;;57.53;33.57;;;;;;;4.57;74.61;101352.28;5094740;28;20304;-69
2022/04/18 03:29:11;;;;;;;53.67;32.90;;;;;;;4.56;74.70;101352.25;5079541;28;20189;-69
2022/04/18 03:31:38;;;;;;;58.50;34.30;;;;;;;4.61;74.63;101343.59;5075863;28;20206;-69
2022/04/18 03:34:06;;;;;;;61.83;34.17;;;;;;;4.57;74.18;101356.56;5094074;28;20209;-69
2022/04/18 03:42:08;;;;;;;48.87;30.90;;;;;;;4.42;72.55;101353.19;5096828;28;20234;-70
2022/04/18 03:44:39;;;;;;;51.97;29.67;;;;;;;4.41;71.53;101359.25;5096037;28;20186;-70
2022/04/18 03:47:06;;;;;;;54.23;29.43;;;;;;;4.29;72.47;101355.91;5095972;28;20699;-70
2022/04/18 03:49:32;;;;;;;48.10;28.93;;;;;;;4.26;72.49;101359.34;5076827;28;20220;-69
2022/04/18 03:52:00;;;;;;;42.23;26.40;;;;;;;4.26;72.61;101355.91;5076139;28;20194;-69
2022/04/18 03:54:26;;;;;;;46.23;27.80;;;;;;;4.26;72.73;101356.75;5099524;28;20194;-69
2022/04/18 03:56:53;;;;;;;51.63;28.47;;;;;;;4.20;73.30;101361.09;5075476;28;20312;-69
2022/04/18 03:59:19;;;;;;;46.30;27.03;;;;;;;4.20;73.64;101354.19;5109469;28;20201;-69
2022/04/18 04:02:02;;;;;;;45.20;27.93;;;;;;;4.13;73.61;101358.53;5095512;28;20663;-69
2022/04/18 04:04:30;;;;;;;48.87;27.90;;;;;;;4.09;73.77;101359.44;5095865;28;20197;-69
2022/04/18 04:07:00;;;;;;;52.83;28.03;;;;;;;4.05;74.27;101355.13;5095091;28;20213;-69
2022/04/18 04:09:27;;;;;;;52.30;27.53;;;;;;;4.04;74.48;101349.94;5094955;28;20581;-69
2022/04/18 04:11:54;;;;;;;44.00;28.03;;;;;;;3.96;74.72;101352.56;5096091;28;20216;-69
2022/04/18 04:14:21;;;;;;;40.80;26.20;;;;;;;3.93;74.86;101352.59;5091164;28;20197;-69
2022/04/18 04:16:49;;;;;;;46.10;26.40;;;;;;;3.88;76.24;101356.06;5076224;28;20213;-69
2022/04/18 04:19:16;;;;;;;38.70;25.00;;;;;;;3.82;77.01;101350.03;5075751;28;20222;-69
2022/04/18 04:21:42;;;;;;;42.33;25.73;;;;;;;3.80;77.31;101346.59;5110289;28;20177;-69
2022/04/18 04:24:09;;;;;;;42.07;25.73;;;;;;;3.77;77.77;101349.19;5114339;28;20177;-69
2022/04/18 04:26:40;;;;;;;37.83;23.20;;;;;;;3.82;77.78;101349.19;5095542;28;20219;-70
2022/04/18 04:29:10;;;;;;;40.00;25.07;;;;;;;3.85;78.45;101356.94;5095769;28;20185;-70
2022/04/18 04:32:09;;;;;;;49.57;25.27;;;;;;;3.83;78.41;101356.94;5095030;28;20263;-69
2022/04/18 04:34:39;;;;;;;40.70;24.47;;;;;;;3.89;78.34;101348.28;5088982;28;20666;-69
2022/04/18 04:37:31;;;;;;;40.53;24.13;;;;;;;3.88;78.34;101349.16;5108563;28;20273;-69
2022/04/18 04:40:17;;;;;;;45.57;24.13;;;;;;;3.85;78.47;101352.59;5094668;28;20197;-69
2022/04/18 04:42:43;;;;;;;36.13;22.90;;;;;;;3.88;78.51;101358.66;5113650;28;20185;-69
2022/04/18 04:45:10;;;;;;;45.90;26.57;;;;;;;3.88;77.12;101353.47;5093336;28;20192;-69
2022/04/18 04:47:55;;;;;;;43.43;25.13;;;;;;;3.85;77.26;101350.00;5113763;28;20180;-69
2022/04/18 04:50:21;;;;;;;38.47;24.77;;;;;;;3.88;77.60;101350.91;5095210;28;20272;-69
2022/04/18 04:52:55;;;;;;;41.97;24.37;;;;;;;3.86;78.01;101356.09;5095445;28;20220;-69
2022/04/18 04:55:25;;;;;;;35.90;22.43;;;;;;;3.88;78.17;101343.97;5095344;28;20209;-69
2022/04/18 04:57:51;;;;;;;41.10;23.80;;;;;;;3.92;78.40;101355.19;5093010;28;20209;-69
2022/04/18 05:00:38;;;;;;;38.73;23.97;;;;;;;3.92;78.27;101358.63;5112801;28;20189;-69
2022/04/18 05:03:16;;;;;;;46.17;25.07;;;;;;;3.93;77.74;101352.59;5095180;28;20185;-70
2022/04/18 05:05:43;;;;;;;39.23;24.27;;;;;;;3.94;77.54;101358.66;5094307;28;20205;-70
2022/04/18 05:08:36;;;;;;;40.00;24.53;;;;;;;3.96;77.91;101360.34;5109101;28;20203;-70
2022/04/18 05:11:04;;;;;;;40.43;24.90;;;;;;;4.06;78.08;101356.84;5093047;28;20197;-69
2022/04/18 05:13:51;;;;;;;42.80;23.30;;;;;;;4.06;79.34;101359.44;5112893;28;20193;-69
2022/04/18 05:16:36;;;;;;;43.20;24.23;;;;;;;4.17;79.67;101366.31;5098792;28;20265;-69
2022/04/18 05:19:27;;;;;;;36.40;23.77;;;;;;;4.20;79.95;101372.34;5098943;28;20276;-69
2022/04/18 05:22:09;;;;;;;35.53;23.83;;;;;;;4.28;79.66;101365.38;5098125;28;20597;-69
2022/04/18 05:24:38;;;;;;;40.33;25.33;;;;;;;4.31;79.45;101369.69;5098058;28;20209;-69
2022/04/18 05:27:07;;;;;;;46.93;26.93;;;;;;;4.40;79.20;101359.28;5097684;28;20217;-69
2022/04/18 05:29:34;;;;;;;42.70;25.57;;;;;;;4.42;78.84;101367.91;5098560;28;20192;-69
2022/04/18 05:32:01;;;;;;;41.97;25.40;;;;;;;4.47;77.99;101363.56;5097988;28;20213;-69
2022/04/18 05:34:32;;;;;;;40.80;25.63;;;;;;;4.51;77.26;101374.78;5098884;28;20193;-69
2022/04/18 05:37:11;;;;;;;53.60;27.63;;;;;;;4.63;75.64;101377.28;5093930;28;20221;-69
2022/04/18 05:39:57;;;;;;;53.50;26.87;;;;;;;4.66;74.73;101375.56;5098806;28;20267;-69
2022/04/18 05:42:25;;;;;;;48.17;28.00;;;;;;;4.75;74.23;101377.22;5098217;28;20197;-69
2022/04/18 05:44:56;;;;;;;51.70;29.00;;;;;;;4.89;73.06;101382.31;5097059;28;20226;-69
2022/04/18 05:47:24;;;;;;;56.67;30.83;;;;;;;4.97;72.69;101381.38;5097018;28;20744;-69
2022/04/18 05:49:50;;;;;;;47.93;30.10;;;;;;;5.07;73.21;101374.41;5096675;28;20229;-69
2022/04/18 05:52:17;;;;;;;60.77;31.03;;;;;;;5.19;74.85;101369.06;5097981;28;20209;-70
2022/04/18 05:54:47;;;;;;;59.90;30.63;;;;;;;5.22;75.96;101373.41;5098273;28;20185;-70
2022/04/18 05:57:13;;;;;;;74.63;37.67;;;;;;;5.38;74.73;101376.72;5097539;28;20645;-70
2022/04/18 05:59:45;;;;;;;81.03;40.03;;;;;;;5.43;74.65;101372.31;5096962;28;20284;-70
2022/04/18 06:02:15;;;;;;;77.03;39.70;;;;;;;5.55;75.48;101381.75;5097468;28;20200;-70
2022/04/18 06:04:59;;;;;;;100.63;48.00;;;;;;;5.78;76.34;101375.41;5098799;28;20570;-70
2022/04/18 06:07:32;;;;;;;91.20;45.70;;;;;;;6.13;72.72;101379.38;5116175;28;20585;-70
2022/04/18 06:10:24;;;;;;;85.47;43.10;;;;;;;6.53;72.97;101373.66;5116146;28;20201;-70
2022/04/18 06:13:04;;;;;;;65.80;35.73;;;;;;;6.86;68.70;101386.19;5095916;28;20231;-70
2022/04/18 06:15:31;;;;;;;76.60;38.03;;;;;;;6.99;70.35;101383.38;5096619;28;20213;-70
2022/04/18 06:17:58;;;;;;;77.50;34.40;;;;;;;7.18;71.43;101382.22;5096563;28;20705;-70
2022/04/18 06:20:25;;;;;;;54.50;31.90;;;;;;;7.34;65.99;101388.00;5097725;28;20205;-70
2022/04/18 06:22:51;;;;;;;63.40;30.20;;;;;;;7.58;64.08;101385.00;5096167;28;20199;-70
2022/04/18 06:25:18;;;;;;;56.37;29.60;;;;;;;7.72;63.07;101387.34;5096415;28;20188;-70
2022/04/18 06:27:44;;;;;;;59.63;29.83;;;;;;;7.95;64.32;101389.50;5097621;28;20187;-70
2022/04/18 06:30:11;;;;;;;54.97;30.97;;;;;;;8.05;62.71;101390.16;5097216;28;20545;-70
2022/04/18 06:33:01;;;;;;;52.90;31.00;;;;;;;8.30;62.28;101391.41;5086073;28;20306;-71
2022/04/18 06:35:27;;;;;;;54.30;30.43;;;;;;;8.40;62.62;101390.34;5097376;28;20698;-71
2022/04/18 06:37:54;;;;;;;64.17;29.90;;;;;;;8.67;61.30;101399.31;5095611;28;20203;-70
2022/04/18 06:40:47;;;;;;;51.17;28.73;;;;;;;8.82;60.05;101395.50;5088732;28;20549;-70
2022/04/18 06:43:16;;;;;;;57.23;29.47;;;;;;;9.08;60.64;101394.88;5086132;28;20193;-70
2022/04/18 06:45:46;;;;;;;66.17;30.90;;;;;;;9.24;62.88;101398.84;5095238;28;20213;-70
2022/04/18 06:48:14;;;;;;;66.03;33.83;;;;;;;9.36;61.40;101401.16;5094084;28;20662;-70
2022/04/18 06:50:59;;;;;;;66.83;32.00;;;;;;;9.66;58.42;101401.25;5106544;28;20196;-70
2022/04/18 06:53:48;;;;;;;64.40;31.20;;;;;;;9.84;57.18;101397.28;5111090;28;20282;-70
2022/04/18 06:59:23;;;;;;;65.60;31.17;;;;;;;10.18;53.90;101399.81;5093935;28;20554;-70
2022/04/18 07:01:50;;;;;;;61.33;31.10;;;;;;;10.32;55.76;101400.31;5095384;28;20200;-72
2022/04/18 07:04:17;;;;;;;48.90;28.27;;;;;;;10.55;56.48;101397.00;5097444;28;20244;-71
2022/04/18 07:06:44;;;;;;;54.63;30.43;;;;;;;10.78;56.27;101398.91;5087541;28;20221;-71
2022/04/18 07:09:11;;;;;;;58.90;29.10;;;;;;;11.04;52.40;101405.94;5076535;28;20194;-71
2022/04/18 07:11:58;;;;;;;52.60;28.57;;;;;;;11.23;52.67;101396.59;5094049;28;20277;-71
2022/04/18 07:14:25;;;;;;;42.40;24.20;;;;;;;11.33;50.28;101398.88;5077081;28;20280;-71
2022/04/18 07:16:56;;;;;;;47.53;24.40;;;;;;;11.45;49.90;101395.88;5076369;28;20220;-71
2022/04/18 07:19:24;;;;;;;49.67;24.30;;;;;;;11.56;50.62;101393.72;5076323;28;20202;-71
2022/04/18 07:21:53;;;;;;;41.37;23.43;;;;;;;11.84;49.81;101394.50;5095696;28;20185;-71
2022/04/18 07:24:19;;;;;;;46.83;22.53;;;;;;;11.98;49.71;101398.41;5096521;28;20189;-71
2022/04/18 07:26:49;;;;;;;34.87;21.53;;;;;;;12.12;50.81;101390.88;5096357;28;20421;-71
2022/04/18 07:29:16;;;;;;;25.30;17.90;;;;;;;12.25;49.85;101386.88;5084696;28;20196;-71
2022/04/18 07:31:43;;;;;;;27.43;15.57;;;;;;;12.32;47.44;101398.88;5076145;28;20190;-71
2022/04/18 07:34:10;;;;;;;15.37;13.90;;;;;;;12.44;46.96;101397.56;5075977;28;20240;-71
2022/04/18 07:36:36;;;;;;;15.53;13.17;;;;;;;12.58;47.22;101397.03;5089460;28;20221;-71
2022/04/18 07:39:03;;;;;;;13.67;11.90;;;;;;;12.81;46.19;101394.34;5091269;28;20195;-70
2022/04/18 07:41:34;;;;;;;15.43;12.70;;;;;;;12.81;45.82;101393.50;5095002;28;20207;-71
2022/04/18 07:44:01;;;;;;;14.73;13.00;;;;;;;12.91;45.78;101390.44;5095994;28;20651;-71
2022/04/18 07:46:30;;;;;;;15.17;13.47;;;;;;;13.05;44.95;101397.75;5090034;28;21028;-71
2022/04/18 07:48:59;;;;;;;14.43;13.13;;;;;;;13.05;45.82;101389.88;5092764;28;20199;-70
2022/04/18 07:51:40;;;;;;;15.93;13.97;;;;;;;13.20;45.96;101391.03;5093840;28;20198;-71
2022/04/18 07:54:27;;;;;;;14.27;12.83;;;;;;;13.46;46.21;101392.59;5096360;28;20287;-71
2022/04/18 07:56:55;;;;;;;14.80;13.13;;;;;;;13.52;44.80;101396.75;5092432;28;20244;-71
2022/04/18 07:59:32;;;;;;;14.43;12.80;;;;;;;13.67;43.64;101393.47;5090334;28;20253;-70
2022/04/18 08:01:59;;;;;;;13.00;12.00;;;;;;;13.78;45.00;101394.69;5095152;28;20195;-70
2022/04/18 08:04:45;;;;;;;12.10;11.00;;;;;;;13.78;44.09;101393.81;5109049;28;20198;-71
2022/04/18 08:07:16;;;;;;;16.97;11.43;;;;;;;13.97;43.57;101385.97;5095715;28;20218;-71
2022/04/18 08:09:42;;;;;;;12.43;11.23;;;;;;;14.09;43.71;101389.84;5093209;28;20237;-71
2022/04/18 08:12:12;;;;;;;12.83;11.77;;;;;;;14.11;43.64;101382.72;5094237;28;20193;-70
2022/04/18 08:15:06;;;;;;;12.70;10.50;;;;;;;14.23;44.08;101382.19;5080724;28;20242;-71
2022/04/18 08:17:33;;;;;;;11.13;10.13;;;;;;;14.43;42.35;101386.50;5080152;28;20190;-71
2022/04/18 08:20:02;;;;;;;12.37;11.37;;;;;;;14.67;42.91;101384.56;5094129;28;20633;-70
2022/04/18 08:22:29;;;;;;;10.90;10.13;;;;;;;14.70;41.81;101379.97;5093555;28;20250;-70
2022/04/18 08:25:18;;;;;;;12.27;11.27;;;;;;;14.66;43.02;101382.84;5113569;28;20207;-71
2022/04/18 08:28:17;;;;;;;9.43;8.50;;;;;;;14.77;40.93;101381.38;5068717;28;20204;-71
2022/04/18 08:30:43;;;;;;;9.77;9.13;;;;;;;14.92;41.06;101377.16;5094395;28;20211;-70
2022/04/18 08:33:25;;;;;;;8.33;7.87;;;;;;;14.87;42.70;101376.53;5093173;28;20635;-71
2022/04/18 08:35:52;;;;;;;8.80;8.40;;;;;;;15.02;42.20;101381.06;5088556;28;20224;-72
2022/04/18 08:38:18;;;;;;;10.07;9.47;;;;;;;15.18;42.23;101375.03;5091524;28;20201;-71
2022/04/18 08:41:10;;;;;;;8.43;8.03;;;;;;;15.30;39.99;101377.06;5055763;28;20243;-72
2022/04/18 08:43:40;;;;;;;8.73;8.33;;;;;;;15.24;39.93;101374.72;5084999;28;20238;-72
2022/04/18 08:46:07;;;;;;;8.87;8.27;;;;;;;15.38;39.64;101374.88;5091470;28;20217;-72
2022/04/18 08:54:07;;;;;;;9.77;8.70;;;;;;;15.67;40.21;101365.50;5117605;28;20197;-71
2022/04/18 08:56:34;;;;;;;8.47;8.07;;;;;;;15.66;40.16;101367.28;5098750;28;20228;-70
2022/04/18 08:59:00;;;;;;;9.20;8.60;;;;;;;15.85;39.22;101372.44;5097104;28;20197;-71
2022/04/18 09:01:27;;;;;;;8.70;8.37;;;;;;;15.97;39.74;101368.31;5098016;28;20253;-71
2022/04/18 09:04:10;;;;;;;8.63;8.23;;;;;;;16.15;38.10;101369.13;5097630;28;20200;-71
2022/04/18 09:06:41;;;;;;;7.03;6.80;;;;;;;16.26;37.57;101371.16;5094387;28;20235;-72
2022/04/18 09:09:24;;;;;;;7.50;7.10;;;;;;;16.44;37.77;101365.72;5117325;28;20280;-71
2022/04/18 09:11:51;;;;;;;7.40;7.10;;;;;;;16.62;39.88;101363.84;5094655;28;20717;-71
2022/04/18 09:14:21;;;;;;;7.70;7.37;;;;;;;16.75;36.95;101358.75;5099054;28;20705;-71
2022/04/18 09:16:50;;;;;;;7.30;7.10;;;;;;;16.83;36.60;101358.31;5098958;28;20221;-71
2022/04/18 09:19:39;;;;;;;6.73;6.53;;;;;;;16.93;35.47;101363.00;5116523;28;20296;-71
2022/04/18 09:22:11;;;;;;;7.70;7.40;;;;;;;16.99;35.06;101353.84;5098940;28;20196;-71
2022/04/18 09:24:43;;;;;;;6.73;6.57;;;;;;;16.83;36.02;101343.28;5094336;28;20208;-71
2022/04/18 09:27:29;;;;;;;6.50;6.33;;;;;;;16.99;37.92;101341.47;5099501;28;20573;-72
2022/04/18 09:30:11;;;;;;;5.93;5.83;;;;;;;17.28;36.68;101347.69;5084889;28;20195;-72
2022/04/18 09:33:14;;;;;;;6.10;5.87;;;;;;;17.47;34.29;101338.66;5087012;28;20238;-71
2022/04/18 09:35:47;;;;;;;7.03;6.63;;;;;;;17.52;34.70;101344.53;5093915;28;20217;-72
2022/04/18 09:38:17;;;;;;;6.00;5.90;;;;;;;17.64;34.94;101338.47;5111852;28;20309;-72
2022/04/18 09:40:56;;;;;;;4.70;4.60;;;;;;;17.80;33.87;101334.00;5113375;28;20196;-72
2022/04/18 09:43:44;;;;;;;5.37;5.27;;;;;;;17.82;32.76;101331.25;5098067;28;20196;-71
2022/04/18 09:46:15;;;;;;;5.97;5.80;;;;;;;18.07;35.09;101325.25;5093148;28;20243;-71
2022/04/18 09:48:50;;;;;;;6.50;6.30;;;;;;;18.04;33.41;101322.81;5088608;28;20224;-71
2022/04/18 09:51:25;;;;;;;7.07;6.43;;;;;;;18.10;34.07;101317.97;5093450;28;20207;-72
2022/04/18 09:54:00;;;;;;;5.30;5.07;;;;;;;18.25;33.74;101313.50;5096868;28;20205;-72
2022/04/18 09:56:27;;;;;;;5.10;5.10;;;;;;;18.24;32.38;101317.09;5100957;28;20210;-72
2022/04/18 09:58:56;;;;;;;13.07;5.40;;;;;;;18.33;32.63;101305.91;5107264;28;20186;-70
2022/04/18 10:01:33;;;;;;;5.33;5.13;;;;;;;18.26;32.54;101301.09;5115784;28;20249;-72
2022/04/18 10:04:01;;;;;;;5.70;5.60;;;;;;;18.08;30.44;101305.78;5115722;28;20195;-72
2022/04/18 10:06:28;;;;;;;3.83;3.73;;;;;;;18.06;31.46;101303.19;5115276;28;20213;-72
2022/04/18 10:08:54;;;;;;;4.73;4.73;;;;;;;18.12;31.25;101300.16;5114384;28;20238;-73
2022/04/18 10:11:22;;;;;;;5.63;5.40;;;;;;;18.27;32.08;101294.84;5114837;28;20692;-73
2022/04/18 10:13:49;;;;;;;6.20;5.67;;;;;;;18.46;30.39;101294.50;5116114;28;20259;-73
2022/04/18 10:16:16;;;;;;;5.13;4.60;;;;;;;18.62;29.64;101296.06;5112359;28;20213;-71
2022/04/18 10:18:52;;;;;;;5.03;4.87;;;;;;;18.66;30.26;101291.44;5110917;28;20676;-72
2022/04/18 10:21:27;;;;;;;4.47;4.27;;;;;;;18.75;29.15;101296.13;5115770;28;20192;-72
2022/04/18 10:24:28;;;;;;;5.53;5.53;;;;;;;18.29;28.60;101290.28;5110712;28;20193;-72
2022/04/18 10:27:12;;;;;;;4.90;4.80;;;;;;;18.31;28.47;101285.75;5111934;28;20261;-72
2022/04/18 10:29:49;;;;;;;5.17;5.07;;;;;;;18.51;29.36;101292.41;5109295;28;20181;-72
2022/04/18 10:32:25;;;;;;;5.67;5.47;;;;;;;18.73;30.69;101276.81;5115946;28;20173;-72
2022/04/18 10:34:56;;;;;;;6.10;5.90;;;;;;;18.79;28.73;101267.56;5114000;28;20201;-72
2022/04/18 10:37:24;;;;;;;5.77;5.57;;;;;;;19.10;31.31;101272.53;5106906;28;20317;-72
2022/04/18 10:39:57;;;;;;;5.77;5.47;;;;;;;19.13;27.07;101269.66;5096150;28;20614;-73
2022/04/18 10:42:30;;;;;;;6.23;6.13;;;;;;;18.89;28.61;101263.38;5095702;28;20197;-71
2022/04/18 10:44:59;;;;;;;5.90;5.80;;;;;;;18.72;29.95;101267.16;5114300;28;20181;-73
2022/04/18 10:47:26;;;;;;;5.23;5.17;;;;;;;18.79;29.12;101259.63;5093760;28;20215;-72
2022/04/18 10:50:17;;;;;;;5.97;5.80;;;;;;;18.80;29.83;101259.53;5094634;28;20190;-72
2022/04/18 10:53:09;;;;;;;6.47;6.37;;;;;;;18.96;28.92;101265.50;5093737;28;20620;-72
2022/04/18 10:55:37;;;;;;;5.53;5.43;;;;;;;18.82;28.38;101264.75;5094962;28;20213;-72
2022/04/18 10:58:13;;;;;;;6.27;6.00;;;;;;;18.78;30.49;101258.78;5095072;28;20190;-73
2022/04/18 11:00:55;;;;;;;6.47;6.20;;;;;;;18.97;30.18;101259.25;5095243;28;20733;-72
2022/04/18 11:03:58;;;;;;;5.87;5.73;;;;;;;19.29;31.01;101255.31;5095420;28;20527;-73
2022/04/18 11:06:24;;;;;;;6.63;6.53;;;;;;;19.65;30.30;101249.31;5101429;28;20304;-71
2022/04/18 11:09:03;;;;;;;5.50;5.40;;;;;;;19.78;32.40;101248.28;5114772;28;20297;-73
2022/04/18 11:11:35;;;;;;;6.73;6.37;;;;;;;19.76;28.17;101250.22;5114374;28;20173;-72
2022/04/18 11:14:13;;;;;;;6.53;6.37;;;;;;;19.88;30.26;101251.16;5114577;28;20205;-72
2022/04/18 11:16:42;;;;;;;7.70;7.20;;;;;;;19.55;28.16;101251.72;5114795;28;20209;-72
2022/04/18 11:19:18;;;;;;;7.10;6.60;;;;;;;19.61;29.43;101239.84;5114718;28;20189;-72
2022/04/18 11:21:57;;;;;;;5.20;5.10;;;;;;;19.91;29.56;101236.78;5115203;28;20218;-72
2022/04/18 11:24:41;;;;;;;6.23;5.93;;;;;;;20.09;30.42;101235.47;5112432;28;20181;-72
2022/04/18 11:27:10;;;;;;;5.90;5.70;;;;;;;20.35;30.09;101238.84;5108191;28;20236;-72
2022/04/18 11:29:39;;;;;;;5.13;5.03;;;;;;;19.77;26.80;101238.63;5107867;28;20214;-72
2022/04/18 11:32:07;;;;;;;6.87;6.27;;;;;;;19.90;27.63;101235.94;5095645;28;20235;-73
2022/04/18 11:34:36;;;;;;;6.87;6.57;;;;;;;20.08;27.70;101230.28;5104481;28;20596;-72
2022/04/18 11:37:08;;;;;;;6.70;6.40;;;;;;;19.98;28.34;101220.28;5112771;28;20228;-72
2022/04/18 11:39:46;;;;;;;6.33;5.87;;;;;;;19.97;28.15;101223.91;5114878;28;20184;-72
2022/04/18 11:42:17;;;;;;;6.07;5.57;;;;;;;19.63;28.78;101224.63;5113843;28;20188;-73
2022/04/18 11:44:45;;;;;;;6.20;5.90;;;;;;;19.56;27.08;101226.84;5114508;28;20174;-73
2022/04/18 11:47:19;;;;;;;5.13;5.00;;;;;;;19.41;28.00;101226.13;5113421;28;20258;-73
2022/04/18 11:49:46;;;;;;;5.53;5.43;;;;;;;19.42;26.98;101225.16;5114599;28;20222;-73
2022/04/18 11:52:21;;;;;;;6.00;5.80;;;;;;;19.60;27.59;101216.91;5100387;28;20198;-73
2022/04/18 11:55:01;;;;;;;7.80;4.83;;;;;;;19.87;29.07;101214.91;5111450;28;20279;-72
2022/04/18 11:57:30;;;;;;;4.50;4.40;;;;;;;20.03;27.12;101217.31;5093847;28;20186;-72
2022/04/18 11:59:57;;;;;;;6.50;5.90;;;;;;;20.13;25.97;101213.00;5094088;28;20189;-73
2022/04/18 12:08:09;;;;;;;5.80;5.70;;;;;;;20.23;27.39;101202.56;5114027;28;20177;-76